createdAt,value
2023-02-06T00:00:43.852Z,95.08
2023-02-06T00:01:43.841Z,94.56
2023-02-06T00:02:43.899Z,94.76
2023-02-06T00:03:43.848Z,94.45
2023-02-06T00:04:43.846Z,94.45
2023-02-06T00:05:43.882Z,94.24
2023-02-06T00:06:43.822Z,94.35
2023-02-06T00:07:43.837Z,94.45
2023-02-06T00:08:43.790Z,94.56
2023-02-06T00:09:43.784Z,94.76
2023-02-06T00:10:43.772Z,95.50
2023-02-06T00:11:43.770Z,94.87
2023-02-06T00:12:43.764Z,94.35
2023-02-06T00:13:43.752Z,94.10
2023-02-06T00:14:43.775Z,94.41
2023-02-06T00:15:43.800Z,94.35
2023-02-06T00:16:43.727Z,94.45
2023-02-06T00:17:43.729Z,94.31
2023-02-06T00:18:43.728Z,94.87
2023-02-06T00:19:43.701Z,94.56
2023-02-06T00:20:43.703Z,94.41
2023-02-06T00:21:43.696Z,94.62
2023-02-06T00:22:43.674Z,94.31
2023-02-06T00:23:43.668Z,93.68
2023-02-06T00:25:44.227Z,94.31
2023-02-06T00:26:44.224Z,94.04
2023-02-06T00:27:44.281Z,94.31
2023-02-06T00:28:44.210Z,94.14
2023-02-06T00:29:44.204Z,94.35
2023-02-06T00:30:44.240Z,94.45
2023-02-06T00:31:44.277Z,94.41
2023-02-06T00:32:44.234Z,94.35
2023-02-06T00:33:44.170Z,94.62
2023-02-06T00:34:44.167Z,94.76
2023-02-06T00:35:44.160Z,95.29
2023-02-06T00:36:45.078Z,95.18
2023-02-06T00:37:44.166Z,95.39
2023-02-06T00:38:44.129Z,96.33
2023-02-06T00:39:44.121Z,95.60
2023-02-06T00:40:44.116Z,96.12
2023-02-06T00:41:44.109Z,96.01
2023-02-06T00:42:44.095Z,95.81
2023-02-06T00:43:44.090Z,95.97
2023-02-06T00:44:44.082Z,95.50
2023-02-06T00:45:44.073Z,95.70
2023-02-06T00:46:44.140Z,96.43
2023-02-06T00:47:44.105Z,95.50
2023-02-06T00:48:44.088Z,95.35
2023-02-06T00:49:44.041Z,95.08
2023-02-06T00:50:44.038Z,95.66
2023-02-06T00:51:44.028Z,95.25
2023-02-06T00:52:44.020Z,95.35
2023-02-06T00:53:44.015Z,96.43
2023-02-06T00:54:43.994Z,96.43
2023-02-06T00:55:43.991Z,95.14
2023-02-06T00:56:43.980Z,95.56
2023-02-06T00:57:43.974Z,95.35
2023-02-06T00:58:43.961Z,95.14
2023-02-06T00:59:43.958Z,95.45
2023-02-06T01:00:45.038Z,95.14
2023-02-06T01:01:45.084Z,95.50
2023-02-06T01:02:45.077Z,95.39
2023-02-06T01:03:45.027Z,95.45
2023-02-06T01:04:45.011Z,95.60
2023-02-06T01:05:45.016Z,96.43
2023-02-06T01:06:45.178Z,96.33
2023-02-06T01:07:44.978Z,96.49
2023-02-06T01:08:44.965Z,95.25
2023-02-06T01:09:45.034Z,95.35
2023-02-06T01:10:44.960Z,95.14
2023-02-06T01:11:44.949Z,94.51
2023-02-06T01:12:44.941Z,94.78
2023-02-06T01:13:45.590Z,94.06
2023-02-06T01:14:45.596Z,94.06
2023-02-06T01:15:44.937Z,93.85
2023-02-06T01:16:44.910Z,95.30
2023-02-06T01:17:44.902Z,94.68
2023-02-06T01:18:44.893Z,93.85
2023-02-06T01:19:44.879Z,93.85
2023-02-06T01:20:44.869Z,93.54
2023-02-06T01:21:44.865Z,93.89
2023-02-06T01:22:44.851Z,93.74
2023-02-06T01:23:44.850Z,93.74
2023-02-06T01:24:44.850Z,93.43
2023-02-06T01:25:44.842Z,92.95
2023-02-06T01:26:44.824Z,93.27
2023-02-06T01:27:44.890Z,93.68
2023-02-06T01:28:44.804Z,93.43
2023-02-06T01:29:47.591Z,93.37
2023-02-06T01:30:44.850Z,93.64
2023-02-06T01:31:44.784Z,93.68
2023-02-06T01:32:44.782Z,93.01
2023-02-06T01:33:44.766Z,93.12
2023-02-06T01:34:44.760Z,92.70
2023-02-06T01:35:44.748Z,92.80
2023-02-06T01:36:44.737Z,92.70
2023-02-06T01:37:44.773Z,92.64
2023-02-06T01:38:45.668Z,92.39
2023-02-06T01:39:44.722Z,92.18
2023-02-06T01:40:44.701Z,92.80
2023-02-06T01:41:44.727Z,93.23
2023-02-06T01:42:45.596Z,93.37
2023-02-06T01:43:44.682Z,93.12
2023-02-06T01:44:44.674Z,93.27
2023-02-06T01:45:44.668Z,93.33
2023-02-06T01:46:44.716Z,92.91
2023-02-06T01:47:44.656Z,93.33
2023-02-06T01:48:44.653Z,93.23
2023-02-06T01:49:44.633Z,93.23
2023-02-06T01:50:44.629Z,92.91
2023-02-06T01:51:44.624Z,92.80
2023-02-06T01:52:44.611Z,93.33
2023-02-06T01:53:44.624Z,93.33
2023-02-06T01:54:44.606Z,93.23
2023-02-06T01:55:44.586Z,92.80
2023-02-06T01:56:44.584Z,93.12
2023-02-06T01:57:44.576Z,93.01
2023-02-06T01:58:44.575Z,92.91
2023-02-06T01:59:44.576Z,92.80
2023-02-06T02:00:44.600Z,92.80
2023-02-06T02:01:45.122Z,92.80
2023-02-06T02:02:44.531Z,92.29
2023-02-06T02:03:44.534Z,92.49
2023-02-06T02:04:44.511Z,92.18
2023-02-06T02:05:44.509Z,92.49
2023-02-06T02:06:44.502Z,92.70
2023-02-06T02:07:44.505Z,92.80
2023-02-06T02:08:44.495Z,92.80
2023-02-06T02:09:44.479Z,92.80
2023-02-06T02:10:44.480Z,92.29
2023-02-06T02:11:44.459Z,92.80
2023-02-06T02:12:44.473Z,93.23
2023-02-06T02:13:44.464Z,92.91
2023-02-06T02:14:44.438Z,92.08
2023-02-06T02:15:44.428Z,92.80
2023-02-06T02:16:44.416Z,92.60
2023-02-06T02:17:44.417Z,92.70
2023-02-06T02:18:44.405Z,92.80
2023-02-06T02:19:44.394Z,93.05
2023-02-06T02:20:44.385Z,93.99
2023-02-06T02:21:44.388Z,93.93
2023-02-06T02:22:44.368Z,93.79
2023-02-06T02:23:44.358Z,95.03
2023-02-06T02:24:45.360Z,94.51
2023-02-06T02:25:44.351Z,94.31
2023-02-06T02:26:44.384Z,94.41
2023-02-06T02:27:44.397Z,94.41
2023-02-06T02:28:44.324Z,94.10
2023-02-06T02:29:44.347Z,93.89
2023-02-06T02:30:44.343Z,93.68
2023-02-06T02:31:45.329Z,93.85
2023-02-06T02:32:44.300Z,93.33
2023-02-06T02:33:44.285Z,93.23
2023-02-06T02:34:44.291Z,93.12
2023-02-06T02:35:44.290Z,93.54
2023-02-06T02:36:44.262Z,93.23
2023-02-06T02:37:44.252Z,93.33
2023-02-06T02:38:44.257Z,93.12
2023-02-06T02:39:44.245Z,93.23
2023-02-06T02:40:44.237Z,93.33
2023-02-06T02:41:44.223Z,93.12
2023-02-06T02:42:44.216Z,93.64
2023-02-06T02:43:44.200Z,93.89
2023-02-06T02:44:45.203Z,93.54
2023-02-06T02:45:44.221Z,93.79
2023-02-06T02:46:44.191Z,93.89
2023-02-06T02:47:44.171Z,93.85
2023-02-06T02:48:45.159Z,94.06
2023-02-06T02:49:45.108Z,94.06
2023-02-06T02:50:44.164Z,93.95
2023-02-06T02:51:44.137Z,93.95
2023-02-06T02:52:44.134Z,93.85
2023-02-06T02:53:44.137Z,94.68
2023-02-06T02:54:44.124Z,94.57
2023-02-06T02:55:44.107Z,94.06
2023-02-06T02:56:44.107Z,94.16
2023-02-06T02:57:44.093Z,94.47
2023-02-06T02:58:44.093Z,94.26
2023-02-06T02:59:44.087Z,94.37
2023-02-06T03:00:44.082Z,94.37
2023-02-06T03:01:44.072Z,94.06
2023-02-06T03:02:44.054Z,93.74
2023-02-06T03:03:44.046Z,93.49
2023-02-06T03:04:44.037Z,94.26
2023-02-06T03:05:44.025Z,94.06
2023-02-06T03:06:44.018Z,93.85
2023-02-06T03:07:44.012Z,94.16
2023-02-06T03:08:44.016Z,93.74
2023-02-06T03:09:45.896Z,93.54
2023-02-06T03:10:45.017Z,93.95
2023-02-06T03:11:43.993Z,94.26
2023-02-06T03:12:44.686Z,93.95
2023-02-06T03:13:43.977Z,93.74
2023-02-06T03:14:43.968Z,93.85
2023-02-06T03:15:43.960Z,94.10
2023-02-06T03:16:43.970Z,94.51
2023-02-06T03:17:43.952Z,95.30
2023-02-06T03:18:43.935Z,94.51
2023-02-06T03:19:43.918Z,94.31
2023-02-06T03:20:43.934Z,94.41
2023-02-06T03:21:43.939Z,94.72
2023-02-06T03:22:43.902Z,94.62
2023-02-06T03:23:43.904Z,94.82
2023-02-06T03:24:43.880Z,95.56
2023-02-06T03:25:43.871Z,96.28
2023-02-06T03:26:43.865Z,95.76
2023-02-06T03:27:43.902Z,95.70
2023-02-06T03:28:43.888Z,95.91
2023-02-06T03:29:43.848Z,96.22
2023-02-06T03:30:43.892Z,96.12
2023-02-06T03:31:43.834Z,96.28
2023-02-06T03:32:43.845Z,95.97
2023-02-06T03:33:44.619Z,95.66
2023-02-06T03:34:43.804Z,96.08
2023-02-06T03:35:43.802Z,95.97
2023-02-06T03:36:43.786Z,95.93
2023-02-06T03:37:44.793Z,95.66
2023-02-06T03:38:43.777Z,95.76
2023-02-06T03:39:43.760Z,95.87
2023-02-06T03:40:43.768Z,95.87
2023-02-06T03:41:43.743Z,95.66
2023-02-06T03:42:43.745Z,95.83
2023-02-06T03:43:43.729Z,95.97
2023-02-06T03:44:43.722Z,95.76
2023-02-06T03:45:43.748Z,96.08
2023-02-06T03:46:43.721Z,96.28
2023-02-06T03:47:44.684Z,96.24
2023-02-06T03:48:43.685Z,95.20
2023-02-06T03:49:43.764Z,95.45
2023-02-06T03:50:43.687Z,95.76
2023-02-06T03:51:43.670Z,95.56
2023-02-06T03:52:43.659Z,95.76
2023-02-06T03:53:43.653Z,95.76
2023-02-06T03:54:43.727Z,95.76
2023-02-06T03:55:43.652Z,96.08
2023-02-06T03:56:43.635Z,95.97
2023-02-06T03:57:43.622Z,95.87
2023-02-06T03:58:43.612Z,95.97
2023-02-06T03:59:43.605Z,95.87
2023-02-06T04:00:43.630Z,95.97
2023-02-06T04:01:43.584Z,95.76
2023-02-06T04:02:43.659Z,95.56
2023-02-06T04:03:43.570Z,95.87
2023-02-06T04:04:43.562Z,95.93
2023-02-06T04:05:43.590Z,96.28
2023-02-06T04:06:43.554Z,96.24
2023-02-06T04:07:43.548Z,95.14
2023-02-06T04:08:43.535Z,95.62
2023-02-06T04:09:43.544Z,95.45
2023-02-06T04:10:43.524Z,95.45
2023-02-06T04:11:43.506Z,95.62
2023-02-06T04:12:43.511Z,95.20
2023-02-06T04:13:43.507Z,96.28
2023-02-06T04:14:43.497Z,95.87
2023-02-06T04:15:43.477Z,95.97
2023-02-06T04:16:43.509Z,96.03
2023-02-06T04:17:58.870Z,95.87
2023-02-06T04:18:45.464Z,95.56
2023-02-06T04:19:43.454Z,95.76
2023-02-06T04:20:44.124Z,95.87
2023-02-06T04:21:43.470Z,95.76
2023-02-06T04:22:44.201Z,95.66
2023-02-06T04:23:43.434Z,95.76
2023-02-06T04:24:43.444Z,95.87
2023-02-06T04:25:43.411Z,95.76
2023-02-06T04:26:44.391Z,95.87
2023-02-06T04:27:43.459Z,95.76
2023-02-06T04:28:43.385Z,95.87
2023-02-06T04:29:43.368Z,95.66
2023-02-06T04:30:43.530Z,96.08
2023-02-06T04:31:43.414Z,96.08
2023-02-06T04:32:43.363Z,96.70
2023-02-06T04:33:43.372Z,96.66
2023-02-06T04:34:43.335Z,96.08
2023-02-06T04:35:43.341Z,96.49
2023-02-06T04:36:43.334Z,96.39
2023-02-06T04:37:43.434Z,95.87
2023-02-06T04:38:43.312Z,95.87
2023-02-06T04:39:43.318Z,95.97
2023-02-06T04:40:43.304Z,95.87
2023-02-06T04:41:43.288Z,95.91
2023-02-06T04:42:43.276Z,96.12
2023-02-06T04:43:43.284Z,96.75
2023-02-06T04:44:43.302Z,96.64
2023-02-06T04:45:43.262Z,97.10
2023-02-06T04:46:43.243Z,97.52
2023-02-06T04:47:43.250Z,97.58
2023-02-06T04:48:43.235Z,97.83
2023-02-06T04:49:43.260Z,98.46
2023-02-06T04:50:43.214Z,98.46
2023-02-06T04:51:43.219Z,98.77
2023-02-06T04:52:43.195Z,98.87
2023-02-06T04:53:43.217Z,98.97
2023-02-06T04:54:43.185Z,98.20
2023-02-06T04:55:43.181Z,97.89
2023-02-06T04:56:43.184Z,98.46
2023-02-06T04:57:43.165Z,98.04
2023-02-06T04:58:44.137Z,97.94
2023-02-06T04:59:43.163Z,98.20
2023-02-06T05:00:43.167Z,98.35
2023-02-06T05:01:43.181Z,97.72
2023-02-06T05:02:43.285Z,97.52
2023-02-06T05:03:43.107Z,98.04
2023-02-06T05:04:43.111Z,98.14
2023-02-06T05:05:43.095Z,98.46
2023-02-06T05:06:43.084Z,98.25
2023-02-06T05:07:43.079Z,98.35
2023-02-06T05:08:43.087Z,98.66
2023-02-06T05:09:43.624Z,98.25
2023-02-06T05:10:43.107Z,98.35
2023-02-06T05:11:43.043Z,98.35
2023-02-06T05:12:43.047Z,98.04
2023-02-06T05:13:43.032Z,97.72
2023-02-06T05:14:43.025Z,97.94
2023-02-06T05:15:43.038Z,97.83
2023-02-06T05:16:42.997Z,97.83
2023-02-06T05:17:42.991Z,98.19
2023-02-06T05:18:42.986Z,98.19
2023-02-06T05:19:42.983Z,98.14
2023-02-06T05:20:42.969Z,97.77
2023-02-06T05:21:42.957Z,97.88
2023-02-06T05:22:42.948Z,98.29
2023-02-06T05:23:42.943Z,98.29
2023-02-06T05:24:42.942Z,98.50
2023-02-06T05:25:43.008Z,98.29
2023-02-06T05:26:42.934Z,98.29
2023-02-06T05:27:43.766Z,98.82
2023-02-06T05:28:42.920Z,98.60
2023-02-06T05:29:42.902Z,98.77
2023-02-06T05:30:42.921Z,98.82
2023-02-06T05:31:42.887Z,98.77
2023-02-06T05:32:42.874Z,98.77
2023-02-06T05:33:42.863Z,98.82
2023-02-06T05:34:42.874Z,98.56
2023-02-06T05:35:42.860Z,98.82
2023-02-06T05:36:43.708Z,99.50
2023-02-06T05:37:43.850Z,99.08
2023-02-06T05:38:42.853Z,98.77
2023-02-06T05:39:42.824Z,98.77
2023-02-06T05:40:42.815Z,98.87
2023-02-06T05:41:42.810Z,98.56
2023-02-06T05:42:43.220Z,98.46
2023-02-06T05:43:42.792Z,98.35
2023-02-06T05:44:42.787Z,97.94
2023-02-06T05:45:42.774Z,97.94
2023-02-06T05:46:42.760Z,98.46
2023-02-06T05:47:42.769Z,98.56
2023-02-06T05:48:42.754Z,98.25
2023-02-06T05:49:42.748Z,98.35
2023-02-06T05:50:43.368Z,98.56
2023-02-06T05:51:43.735Z,98.56
2023-02-06T05:52:42.737Z,98.66
2023-02-06T05:53:42.719Z,98.25
2023-02-06T05:54:42.699Z,98.46
2023-02-06T05:55:42.698Z,98.35
2023-02-06T05:56:42.695Z,98.14
2023-02-06T05:57:42.686Z,97.94
2023-02-06T05:58:42.670Z,97.77
2023-02-06T05:59:42.687Z,97.72
2023-02-06T06:00:42.654Z,97.94
2023-02-06T06:01:42.655Z,98.04
2023-02-06T06:02:42.645Z,97.52
2023-02-06T06:03:43.166Z,98.08
2023-02-06T06:04:42.660Z,97.94
2023-02-06T06:05:42.617Z,97.77
2023-02-06T06:06:42.616Z,97.98
2023-02-06T06:07:42.613Z,97.88
2023-02-06T06:08:42.595Z,97.77
2023-02-06T06:09:42.582Z,97.77
2023-02-06T06:10:42.572Z,97.50
2023-02-06T06:11:42.568Z,97.56
2023-02-06T06:12:42.557Z,98.08
2023-02-06T06:13:42.562Z,98.39
2023-02-06T06:14:42.547Z,97.98
2023-02-06T06:15:43.175Z,98.50
2023-02-06T06:16:42.525Z,98.82
2023-02-06T06:17:42.545Z,98.92
2023-02-06T06:18:43.144Z,99.13
2023-02-06T06:19:42.502Z,99.13
2023-02-06T06:20:43.152Z,99.23
2023-02-06T06:21:42.487Z,99.54
2023-02-06T06:22:42.490Z,99.13
2023-02-06T06:23:43.140Z,98.82
2023-02-06T06:24:42.469Z,98.71
2023-02-06T06:25:42.458Z,98.71
2023-02-06T06:26:42.451Z,98.39
2023-02-06T06:27:42.438Z,98.29
2023-02-06T06:28:42.428Z,98.39
2023-02-06T06:29:42.575Z,98.82
2023-02-06T06:30:42.423Z,98.96
2023-02-06T06:31:42.444Z,98.60
2023-02-06T06:32:42.398Z,98.82
2023-02-06T06:33:42.391Z,98.71
2023-02-06T06:34:43.241Z,99.17
2023-02-06T06:35:42.383Z,99.13
2023-02-06T06:36:42.392Z,99.13
2023-02-06T06:37:42.353Z,99.44
2023-02-06T06:38:42.343Z,99.75
2023-02-06T06:39:43.216Z,99.99
2023-02-06T06:40:42.335Z,99.71
2023-02-06T06:41:42.322Z,99.99
2023-02-06T06:42:42.318Z,99.96
2023-02-06T06:43:42.317Z,99.96
2023-02-06T06:44:42.315Z,99.99
2023-02-06T06:45:43.422Z,99.96
2023-02-06T06:46:42.288Z,99.96
2023-02-06T06:47:42.274Z,99.75
2023-02-06T06:48:42.270Z,99.18
2023-02-06T06:49:42.266Z,99.18
2023-02-06T06:50:43.146Z,98.56
2023-02-06T06:51:43.234Z,99.08
2023-02-06T06:52:42.242Z,99.18
2023-02-06T06:53:42.222Z,98.87
2023-02-06T06:54:42.222Z,98.82
2023-02-06T06:55:42.208Z,98.77
2023-02-06T06:56:42.202Z,98.87
2023-02-06T06:57:42.232Z,98.97
2023-02-06T06:58:42.217Z,98.77
2023-02-06T06:59:42.188Z,98.77
2023-02-06T07:00:42.224Z,98.77
2023-02-06T07:01:42.230Z,98.56
2023-02-06T07:02:42.203Z,98.35
2023-02-06T07:03:42.141Z,98.50
2023-02-06T07:04:42.167Z,98.35
2023-02-06T07:05:42.134Z,98.46
2023-02-06T07:06:42.120Z,98.56
2023-02-06T07:07:42.124Z,98.56
2023-02-06T07:08:42.156Z,98.87
2023-02-06T07:09:42.099Z,98.46
2023-02-06T07:10:42.117Z,98.35
2023-02-06T07:11:42.961Z,98.20
2023-02-06T07:12:42.080Z,98.46
2023-02-06T07:13:42.061Z,98.35
2023-02-06T07:14:42.073Z,97.72
2023-02-06T07:15:42.047Z,97.83
2023-02-06T07:16:42.084Z,98.14
2023-02-06T07:17:42.059Z,97.83
2023-02-06T07:18:42.024Z,97.83
2023-02-06T07:19:42.031Z,97.68
2023-02-06T07:20:42.044Z,98.04
2023-02-06T07:21:42.002Z,97.47
2023-02-06T07:22:42.000Z,97.62
2023-02-06T07:23:41.988Z,97.58
2023-02-06T07:24:41.978Z,97.52
2023-02-06T07:25:41.989Z,97.83
2023-02-06T07:26:41.954Z,97.94
2023-02-06T07:27:41.947Z,97.72
2023-02-06T07:28:41.946Z,97.62
2023-02-06T07:29:41.941Z,97.52
2023-02-06T07:30:41.940Z,97.72
2023-02-06T07:31:41.975Z,98.04
2023-02-06T07:32:42.726Z,97.88
2023-02-06T07:33:42.671Z,98.25
2023-02-06T07:34:41.894Z,98.14
2023-02-06T07:35:41.890Z,98.04
2023-02-06T07:36:41.872Z,97.62
2023-02-06T07:37:43.725Z,97.83
2023-02-06T07:38:41.878Z,97.83
2023-02-06T07:39:41.855Z,97.72
2023-02-06T07:40:45.328Z,97.98
2023-02-06T07:41:42.860Z,97.72
2023-02-06T07:42:41.888Z,97.25
2023-02-06T07:43:41.842Z,97.94
2023-02-06T07:44:41.817Z,97.62
2023-02-06T07:45:41.848Z,98.04
2023-02-06T07:46:41.835Z,97.52
2023-02-06T07:47:42.655Z,97.83
2023-02-06T07:48:41.770Z,97.94
2023-02-06T07:49:41.836Z,97.94
2023-02-06T07:50:41.771Z,97.89
2023-02-06T07:51:41.761Z,97.94
2023-02-06T07:52:41.742Z,97.68
2023-02-06T07:53:41.739Z,97.68
2023-02-06T07:54:41.739Z,98.04
2023-02-06T07:55:41.730Z,95.81
2023-02-06T07:56:41.714Z,95.54
2023-02-06T07:57:41.717Z,95.23
2023-02-06T07:58:41.724Z,94.60
2023-02-06T07:59:41.684Z,94.18
2023-02-06T08:00:41.677Z,94.98
2023-02-06T08:01:43.650Z,94.45
2023-02-06T08:02:41.658Z,94.04
2023-02-06T08:03:41.653Z,93.05
2023-02-06T08:04:41.691Z,92.33
2023-02-06T08:05:41.641Z,92.22
2023-02-06T08:06:42.229Z,91.96
2023-02-06T08:07:41.623Z,91.71
2023-02-06T08:08:43.241Z,91.81
2023-02-06T08:09:41.667Z,91.60
2023-02-06T08:10:41.598Z,90.87
2023-02-06T08:11:42.240Z,90.66
2023-02-06T08:12:41.577Z,90.77
2023-02-06T08:13:41.641Z,90.87
2023-02-06T08:14:41.635Z,91.12
2023-02-06T08:15:42.233Z,90.66
2023-02-06T08:16:41.616Z,90.35
2023-02-06T08:17:42.234Z,90.45
2023-02-06T08:18:41.540Z,90.08
2023-02-06T08:19:41.532Z,90.39
2023-02-06T08:20:42.514Z,89.87
2023-02-06T08:21:41.526Z,89.35
2023-02-06T08:22:41.506Z,89.76
2023-02-06T08:23:41.493Z,89.66
2023-02-06T08:24:41.533Z,89.76
2023-02-06T08:25:41.500Z,89.45
2023-02-06T08:26:41.489Z,89.41
2023-02-06T08:27:41.474Z,89.45
2023-02-06T08:28:42.419Z,89.31
2023-02-06T08:29:42.460Z,89.52
2023-02-06T08:30:41.534Z,89.25
2023-02-06T08:31:41.564Z,89.41
2023-02-06T08:32:41.463Z,89.14
2023-02-06T08:33:41.411Z,89.10
2023-02-06T08:34:41.406Z,89.52
2023-02-06T08:35:42.394Z,89.20
2023-02-06T08:36:43.384Z,88.48
2023-02-06T08:37:42.379Z,88.58
2023-02-06T08:38:41.372Z,88.23
2023-02-06T08:39:41.361Z,87.92
2023-02-06T08:40:42.158Z,87.65
2023-02-06T08:41:41.344Z,87.43
2023-02-06T08:42:43.189Z,87.40
2023-02-06T08:43:41.423Z,86.91
2023-02-06T08:44:41.752Z,87.60
2023-02-06T08:45:41.311Z,87.43
2023-02-06T08:46:41.314Z,87.54
2023-02-06T08:47:41.372Z,87.43
2023-02-06T08:48:44.166Z,85.88
2023-02-06T08:49:41.294Z,87.12
2023-02-06T08:50:41.269Z,86.71
2023-02-06T08:51:41.251Z,86.77
2023-02-06T08:52:42.247Z,87.29
2023-02-06T08:53:41.414Z,87.71
2023-02-06T08:54:41.233Z,87.02
2023-02-06T08:55:41.583Z,86.88
2023-02-06T08:56:41.217Z,87.19
2023-02-06T08:57:41.208Z,87.50
2023-02-06T08:58:41.291Z,86.42
2023-02-06T08:59:41.755Z,86.98
2023-02-06T09:00:41.214Z,86.46
2023-02-06T09:01:41.235Z,87.25
2023-02-06T09:02:41.192Z,86.98
2023-02-06T09:03:41.191Z,87.71
2023-02-06T09:04:41.160Z,87.71
2023-02-06T09:05:41.160Z,87.77
2023-02-06T09:06:41.137Z,86.94
2023-02-06T09:07:41.148Z,87.15
2023-02-06T09:08:41.137Z,86.32
2023-02-06T09:09:41.133Z,86.88
2023-02-06T09:10:41.109Z,87.29
2023-02-06T09:11:41.115Z,86.94
2023-02-06T09:12:41.103Z,87.15
2023-02-06T09:13:41.098Z,87.25
2023-02-06T09:14:41.114Z,87.71
2023-02-06T09:15:41.276Z,87.60
2023-02-06T09:16:41.061Z,87.66
2023-02-06T09:17:41.062Z,87.46
2023-02-06T09:18:42.746Z,87.46
2023-02-06T09:19:41.038Z,86.63
2023-02-06T09:20:42.743Z,85.90
2023-02-06T09:21:41.019Z,86.11
2023-02-06T09:22:41.026Z,85.49
2023-02-06T09:23:41.012Z,86.00
2023-02-06T09:24:41.010Z,85.80
2023-02-06T09:25:41.061Z,85.24
2023-02-06T09:26:57.953Z,85.38
2023-02-06T09:27:43.733Z,85.86
2023-02-06T09:28:40.975Z,85.96
2023-02-06T09:29:40.962Z,85.55
2023-02-06T09:30:40.982Z,85.93
2023-02-06T09:31:40.963Z,84.41
2023-02-06T09:32:40.923Z,85.03
2023-02-06T09:33:40.959Z,85.34
2023-02-06T09:34:40.928Z,84.51
2023-02-06T09:35:40.930Z,84.65
2023-02-06T09:36:40.903Z,84.82
2023-02-06T09:37:40.885Z,85.03
2023-02-06T09:38:40.918Z,84.61
2023-02-06T09:39:40.865Z,85.03
2023-02-06T09:40:40.855Z,85.55
2023-02-06T09:41:40.875Z,84.99
2023-02-06T09:42:40.855Z,85.10
2023-02-06T09:43:40.836Z,84.47
2023-02-06T09:44:40.837Z,84.47
2023-02-06T09:45:40.880Z,84.47
2023-02-06T09:46:40.904Z,84.16
2023-02-06T09:47:40.801Z,83.95
2023-02-06T09:48:40.813Z,83.47
2023-02-06T09:49:40.807Z,83.74
2023-02-06T09:50:40.778Z,84.05
2023-02-06T09:51:40.771Z,83.95
2023-02-06T09:52:40.828Z,83.43
2023-02-06T09:53:40.752Z,83.60
2023-02-06T09:54:40.754Z,82.91
2023-02-06T09:55:40.733Z,83.12
2023-02-06T09:56:40.711Z,83.29
2023-02-06T09:57:40.717Z,83.43
2023-02-06T09:58:40.721Z,83.33
2023-02-06T09:59:40.717Z,83.50
2023-02-06T10:00:40.704Z,83.39
2023-02-06T10:01:40.739Z,83.15
2023-02-06T10:02:40.682Z,81.94
2023-02-06T10:03:40.712Z,82.01
2023-02-06T10:04:40.665Z,81.59
2023-02-06T10:05:40.662Z,80.87
2023-02-06T10:06:40.650Z,81.59
2023-02-06T10:07:40.642Z,80.83
2023-02-06T10:08:40.648Z,81.35
2023-02-06T10:09:40.631Z,79.69
2023-02-06T10:10:40.620Z,79.41
2023-02-06T10:11:41.169Z,79.10
2023-02-06T10:12:40.598Z,79.90
2023-02-06T10:13:40.682Z,79.72
2023-02-06T10:14:40.582Z,80.14
2023-02-06T10:15:40.580Z,79.10
2023-02-06T10:16:40.565Z,78.78
2023-02-06T10:17:40.558Z,79.51
2023-02-06T10:19:46.840Z,79.61
2023-02-06T10:20:46.829Z,79.24
2023-02-06T10:21:47.913Z,79.41
2023-02-06T10:22:47.915Z,79.97
2023-02-06T10:23:47.913Z,80.28
2023-02-06T10:24:47.908Z,81.11
2023-02-06T10:25:47.891Z,81.63
2023-02-06T10:27:54.813Z,81.49
2023-02-06T10:28:54.739Z,81.38
2023-02-06T10:29:55.829Z,80.97
2023-02-06T10:30:55.839Z,80.66
2023-02-06T10:31:55.865Z,80.87
2023-02-06T10:32:55.791Z,81.35
2023-02-06T10:33:55.803Z,81.04
2023-02-06T10:34:55.770Z,79.90
2023-02-06T10:35:55.760Z,79.48
2023-02-06T10:36:55.754Z,79.58
2023-02-06T10:37:55.748Z,79.96
2023-02-06T10:40:02.606Z,79.75
2023-02-06T10:41:02.591Z,78.06
2023-02-06T10:42:03.682Z,77.95
2023-02-06T10:43:03.670Z,78.27
2023-02-06T10:44:03.663Z,77.75
2023-02-06T10:45:18.972Z,77.75
2023-02-06T10:46:05.646Z,77.85
2023-02-06T10:47:03.728Z,78.16
2023-02-06T10:48:03.625Z,78.82
2023-02-06T10:49:03.631Z,77.99
2023-02-06T10:50:03.627Z,78.82
2023-02-06T10:51:03.608Z,77.99
2023-02-06T10:52:03.600Z,77.78
2023-02-06T10:53:03.599Z,78.82
2023-02-06T10:54:03.598Z,78.13
2023-02-06T10:55:03.601Z,78.34
2023-02-06T10:56:03.568Z,79.79
2023-02-06T10:57:03.560Z,79.24
2023-02-06T10:58:03.550Z,78.65
2023-02-06T10:59:05.470Z,78.44
2023-02-06T11:00:03.525Z,78.82
2023-02-06T11:01:13.871Z,78.92
2023-02-06T11:02:04.565Z,78.78
2023-02-06T11:03:07.907Z,77.64
2023-02-06T11:04:06.466Z,78.16
2023-02-06T11:05:04.470Z,77.99
2023-02-06T11:06:03.485Z,78.58
2023-02-06T11:07:03.496Z,77.68
2023-02-06T11:08:03.467Z,78.23
2023-02-06T11:09:03.497Z,77.85
2023-02-06T11:10:03.986Z,78.23
2023-02-06T11:11:03.444Z,77.82
2023-02-06T11:12:03.426Z,78.61
2023-02-06T11:13:03.461Z,78.09
2023-02-06T11:14:03.414Z,78.30
2023-02-06T11:15:03.630Z,78.58
2023-02-06T11:16:03.453Z,77.71
2023-02-06T11:17:03.987Z,78.02
2023-02-06T11:18:03.474Z,77.54
2023-02-06T11:19:03.375Z,76.67
2023-02-06T11:20:03.378Z,76.50
2023-02-06T11:21:03.357Z,76.81
2023-02-06T11:22:03.344Z,77.50
2023-02-06T11:23:03.359Z,77.61
2023-02-06T11:24:03.334Z,77.75
2023-02-06T11:25:03.333Z,77.29
2023-02-06T11:26:04.970Z,77.61
2023-02-06T11:27:03.313Z,77.61
2023-02-06T11:28:05.070Z,76.53
2023-02-06T11:29:03.302Z,76.19
2023-02-06T11:30:03.312Z,75.46
2023-02-06T11:31:03.398Z,75.57
2023-02-06T11:32:04.062Z,74.74
2023-02-06T11:33:04.976Z,75.46
2023-02-06T11:34:04.258Z,75.36
2023-02-06T11:35:03.270Z,75.12
2023-02-06T11:36:03.298Z,74.81
2023-02-06T11:37:03.262Z,74.08
2023-02-06T11:38:05.380Z,73.60
2023-02-06T11:39:03.216Z,74.19
2023-02-06T11:40:03.223Z,74.08
2023-02-06T11:41:05.047Z,74.12
2023-02-06T11:42:03.209Z,74.32
2023-02-06T11:43:03.183Z,74.91
2023-02-06T11:44:03.199Z,74.05
2023-02-06T11:45:03.171Z,74.19
2023-02-06T11:46:03.187Z,75.74
2023-02-06T11:47:03.197Z,76.50
2023-02-06T11:48:03.134Z,76.40
2023-02-06T11:49:03.155Z,77.95
2023-02-06T11:50:03.120Z,77.54
2023-02-06T11:51:03.142Z,76.29
2023-02-06T11:52:03.111Z,76.54
2023-02-06T11:53:03.111Z,76.54
2023-02-06T11:54:03.274Z,77.26
2023-02-06T11:55:03.645Z,77.54
2023-02-06T11:56:03.074Z,77.54
2023-02-06T11:57:03.078Z,78.02
2023-02-06T11:58:03.079Z,76.98
2023-02-06T11:59:06.022Z,76.46
2023-02-06T12:00:03.064Z,76.46
2023-02-06T12:01:03.066Z,75.09
2023-02-06T12:02:03.056Z,74.98
2023-02-06T12:03:03.046Z,74.95
2023-02-06T12:04:03.026Z,74.46
2023-02-06T12:05:03.008Z,75.50
2023-02-06T12:06:03.309Z,75.46
2023-02-06T12:07:03.999Z,74.22
2023-02-06T12:08:02.976Z,74.43
2023-02-06T12:09:02.966Z,73.60
2023-02-06T12:10:02.975Z,73.50
2023-02-06T12:11:02.981Z,73.88
2023-02-06T12:12:02.941Z,74.19
2023-02-06T12:13:04.437Z,74.29
2023-02-06T12:14:02.949Z,74.29
2023-02-06T12:15:18.213Z,73.98
2023-02-06T12:16:05.568Z,73.77
2023-02-06T12:17:02.915Z,73.88
2023-02-06T12:18:02.897Z,73.60
2023-02-06T12:19:02.912Z,73.74
2023-02-06T12:20:02.907Z,73.43
2023-02-06T12:21:03.024Z,73.84
2023-02-06T12:22:50.752Z,73.94
2023-02-06T12:23:50.745Z,73.32
2023-02-06T12:24:50.732Z,73.22
2023-02-06T12:25:51.632Z,73.11
2023-02-06T12:26:50.731Z,72.77
2023-02-06T12:27:50.724Z,72.56
2023-02-06T12:28:50.702Z,72.02
2023-02-06T12:29:50.692Z,72.85
2023-02-06T12:30:50.736Z,72.64
2023-02-06T12:31:50.804Z,73.22
2023-02-06T12:32:50.667Z,73.22
2023-02-06T12:33:50.677Z,70.32
2023-02-06T12:34:50.664Z,70.36
2023-02-06T12:35:50.650Z,70.53
2023-02-06T12:36:50.637Z,70.87
2023-02-06T12:37:50.634Z,70.87
2023-02-06T12:38:50.619Z,70.98
2023-02-06T12:39:50.610Z,70.57
2023-02-06T12:40:50.606Z,70.98
2023-02-06T12:41:51.098Z,70.47
2023-02-06T12:42:50.591Z,70.47
2023-02-06T12:43:51.698Z,71.08
2023-02-06T12:44:51.670Z,69.81
2023-02-06T12:45:52.729Z,69.22
2023-02-06T12:46:52.180Z,69.95
2023-02-06T12:47:52.636Z,70.98
2023-02-06T12:48:53.179Z,70.95
2023-02-06T12:49:52.611Z,70.22
2023-02-06T12:50:53.603Z,70.95
2023-02-06T12:51:51.611Z,70.95
2023-02-06T12:52:51.599Z,70.32
2023-02-06T12:53:51.589Z,69.74
2023-02-06T12:54:51.613Z,70.47
2023-02-06T12:55:51.648Z,70.32
2023-02-06T12:56:51.621Z,69.98
2023-02-06T12:57:51.568Z,69.88